Time;durP1;ratioP1;P1;durP2;ratioP2;P2;SDS_P1;SDS_P2;PMS_P1;PMS_P2;Temp;Humidity;BMP_temperature;BMP_pressure;BME280_temperature;BME280_humidity;BME280_pressure;Samples;Min_cycle;Max_cycle;Signal;HPM_P1;HPM_P2
2021/05/16 00:00:00;;;;;;;;;;;8.10;99.90;;;;;;5090541;28;20010;-72
2021/05/16 00:02:26;;;;;;;;;;;8.10;99.90;;;;;;5095110;28;19912;-72
2021/05/16 00:04:51;;;;;;;;;;;8.00;99.90;;;;;;5095143;28;19942;-72
2021/05/16 00:07:17;;;;;;;;;;;8.00;99.90;;;;;;5091829;28;20315;-71
2021/05/16 00:09:43;;;;;;;;;;;8.00;99.90;;;;;;5094726;28;19908;-70
2021/05/16 00:12:09;;;;;;;;;;;8.10;99.90;;;;;;5094702;28;19954;-70
2021/05/16 00:14:35;;;;;;;;;;;8.10;99.90;;;;;;5087040;28;19977;-70
2021/05/16 00:17:01;;;;;;;;;;;8.10;99.90;;;;;;5108452;28;20361;-70
2021/05/16 00:19:27;;;;;;;;;;;8.10;99.90;;;;;;5114951;28;20382;-70
2021/05/16 00:21:52;;;;;;;;;;;8.20;99.90;;;;;;5106537;28;19920;-71
2021/05/16 00:24:18;;;;;;;;;;;8.20;99.90;;;;;;5091620;28;20300;-70
2021/05/16 00:26:44;;;;;;;;;;;8.20;99.90;;;;;;5114530;28;20246;-70
2021/05/16 00:29:09;;;;;;;;;;;8.20;99.90;;;;;;5113682;28;19912;-70
2021/05/16 00:31:35;;;;;;;;;;;8.20;99.90;;;;;;5110892;28;19912;-71
2021/05/16 00:34:01;;;;;;;;;;;8.20;99.90;;;;;;5088674;28;20007;-70
2021/05/16 00:36:26;;;;;;;;;;;8.20;99.90;;;;;;5111962;28;19914;-70
2021/05/16 00:38:56;;;;;;;;;;;8.20;99.90;;;;;;5114771;28;19923;-70
2021/05/16 00:41:21;;;;;;;;;;;8.30;99.90;;;;;;5114651;28;19908;-70
2021/05/16 00:43:47;;;;;;;;;;;8.30;99.90;;;;;;5106128;28;20380;-70
2021/05/16 00:46:12;;;;;;;;;;;8.30;99.90;;;;;;5089308;28;19907;-70
2021/05/16 00:48:38;;;;;;;;;;;8.30;99.90;;;;;;5094180;28;19908;-70
2021/05/16 00:51:04;;;;;;;;;;;8.30;99.90;;;;;;5094428;28;19909;-70
2021/05/16 00:53:29;;;;;;;;;;;8.30;99.90;;;;;;5084770;28;20441;-70
2021/05/16 00:55:57;;;;;;;;;;;8.30;99.90;;;;;;5093401;28;19912;-70
2021/05/16 00:58:22;;;;;;;;;;;8.30;99.90;;;;;;5094171;28;20387;-70
2021/05/16 01:00:48;;;;;;;;;;;8.30;99.90;;;;;;5094053;28;19908;-70
2021/05/16 01:03:14;;;;;;;;;;;8.30;99.90;;;;;;5094053;28;19952;-71
2021/05/16 01:05:42;;;;;;;;;;;8.40;99.90;;;;;;5085081;28;20250;-71
2021/05/16 01:08:07;;;;;;;;;;;8.40;99.90;;;;;;5093894;28;19908;-70
2021/05/16 01:10:33;;;;;;;;;;;8.40;99.90;;;;;;5093762;28;20010;-70
2021/05/16 01:12:59;;;;;;;;;;;8.40;99.90;;;;;;5093041;28;19908;-70
2021/05/16 01:15:25;;;;;;;;;;;8.40;99.90;;;;;;5093861;28;20013;-70
2021/05/16 01:17:51;;;;;;;;;;;8.40;99.90;;;;;;5089345;28;19912;-70
2021/05/16 01:20:26;;;;;;;;;;;8.40;99.90;;;;;;5093463;28;20277;-70
2021/05/16 01:22:53;;;;;;;;;;;8.40;99.90;;;;;;5093719;28;19908;-71
2021/05/16 01:25:19;;;;;;;;;;;8.40;99.90;;;;;;5093359;28;19919;-70
2021/05/16 01:27:45;;;;;;;;;;;8.50;99.90;;;;;;5091135;28;19990;-70
2021/05/16 01:30:11;;;;;;;;;;;8.50;99.90;;;;;;5093534;28;19947;-70
2021/05/16 01:32:37;;;;;;;;;;;8.50;99.90;;;;;;5090371;28;19908;-70
2021/05/16 01:35:02;;;;;;;;;;;8.50;99.90;;;;;;5093271;28;19915;-70
2021/05/16 01:37:28;;;;;;;;;;;8.60;99.90;;;;;;5090946;28;20286;-70
2021/05/16 01:39:53;;;;;;;;;;;8.60;99.90;;;;;;5092623;28;20285;-71
2021/05/16 01:42:20;;;;;;;;;;;8.60;99.90;;;;;;5093045;28;19919;-71
2021/05/16 01:44:46;;;;;;;;;;;8.60;99.90;;;;;;5093260;28;19920;-70
2021/05/16 01:47:12;;;;;;;;;;;8.70;99.90;;;;;;5092216;28;20305;-70
2021/05/16 01:49:41;;;;;;;;;;;8.70;99.90;;;;;;5093018;28;19959;-71
2021/05/16 01:52:06;;;;;;;;;;;8.70;99.90;;;;;;5092880;28;20389;-70
2021/05/16 01:54:32;;;;;;;;;;;8.70;99.90;;;;;;5092766;28;19908;-70
2021/05/16 01:56:58;;;;;;;;;;;8.80;99.90;;;;;;5085966;28;19908;-70
2021/05/16 01:59:24;;;;;;;;;;;8.80;99.90;;;;;;5085655;28;19912;-70
2021/05/16 02:01:49;;;;;;;;;;;8.80;99.90;;;;;;5089920;28;20384;-70
2021/05/16 02:04:15;;;;;;;;;;;8.80;99.90;;;;;;5088790;28;19912;-71
2021/05/16 02:06:41;;;;;;;;;;;8.90;99.90;;;;;;5091333;28;19908;-70
2021/05/16 02:09:06;;;;;;;;;;;8.90;99.90;;;;;;5088027;28;19908;-70
2021/05/16 02:11:32;;;;;;;;;;;8.80;99.90;;;;;;5092136;28;19908;-70
2021/05/16 02:13:57;;;;;;;;;;;8.90;99.90;;;;;;5096077;28;19960;-71
2021/05/16 02:16:23;;;;;;;;;;;8.90;99.90;;;;;;5111252;28;19912;-71
2021/05/16 02:18:48;;;;;;;;;;;8.90;99.90;;;;;;5109350;28;20337;-70
2021/05/16 02:21:14;;;;;;;;;;;8.90;99.90;;;;;;5088306;28;19908;-71
2021/05/16 02:23:40;;;;;;;;;;;8.90;99.90;;;;;;5092012;28;19912;-71
2021/05/16 02:26:05;;;;;;;;;;;8.90;99.90;;;;;;5091253;28;19912;-72
2021/05/16 02:28:31;;;;;;;;;;;8.80;99.90;;;;;;5092174;28;19999;-70
2021/05/16 02:30:57;;;;;;;;;;;8.90;99.90;;;;;;5092239;28;19913;-70
2021/05/16 02:33:22;;;;;;;;;;;8.90;99.90;;;;;;5092174;28;20012;-71
2021/05/16 02:35:48;;;;;;;;;;;8.90;99.90;;;;;;5091037;28;19909;-71
2021/05/16 02:38:13;;;;;;;;;;;8.90;99.90;;;;;;5091423;28;19927;-71
2021/05/16 02:40:39;;;;;;;;;;;8.90;99.90;;;;;;5091954;28;20269;-71
2021/05/16 02:43:04;;;;;;;;;;;8.90;99.90;;;;;;5092019;28;19908;-71
2021/05/16 02:45:30;;;;;;;;;;;8.90;99.90;;;;;;5092001;28;20005;-71
2021/05/16 02:47:55;;;;;;;;;;;8.90;99.90;;;;;;5090893;28;19916;-70
2021/05/16 02:50:21;;;;;;;;;;;8.90;99.90;;;;;;5087511;28;20018;-70
2021/05/16 02:52:46;;;;;;;;;;;8.90;99.90;;;;;;5091111;28;19930;-70
2021/05/16 02:55:12;;;;;;;;;;;8.90;99.90;;;;;;5091734;28;19912;-71
2021/05/16 02:57:38;;;;;;;;;;;8.90;99.90;;;;;;5090665;28;19912;-71
2021/05/16 03:00:04;;;;;;;;;;;9.00;99.90;;;;;;5091961;28;19926;-70
2021/05/16 03:02:30;;;;;;;;;;;9.00;99.90;;;;;;5091329;28;19908;-70
2021/05/16 03:04:55;;;;;;;;;;;9.00;99.90;;;;;;5091178;28;19920;-70
2021/05/16 03:07:21;;;;;;;;;;;9.00;99.90;;;;;;5089769;28;20011;-70
2021/05/16 03:09:46;;;;;;;;;;;9.00;99.90;;;;;;5091144;28;19912;-70
2021/05/16 03:12:12;;;;;;;;;;;9.00;99.90;;;;;;5091306;28;20245;-70
2021/05/16 03:14:37;;;;;;;;;;;9.00;99.90;;;;;;5090894;28;19908;-70
2021/05/16 03:17:03;;;;;;;;;;;9.00;99.90;;;;;;5089809;28;19962;-71
2021/05/16 03:19:28;;;;;;;;;;;9.00;99.90;;;;;;5086812;28;19912;-71
2021/05/16 03:21:54;;;;;;;;;;;9.00;99.90;;;;;;5090224;28;19908;-71
2021/05/16 03:24:20;;;;;;;;;;;9.00;99.90;;;;;;5090908;28;19909;-70
2021/05/16 03:26:45;;;;;;;;;;;9.00;99.90;;;;;;5089760;28;20019;-70
2021/05/16 03:29:11;;;;;;;;;;;9.00;99.90;;;;;;5090807;28;19908;-71
2021/05/16 03:31:36;;;;;;;;;;;9.00;99.90;;;;;;5090803;28;20389;-70
2021/05/16 03:34:02;;;;;;;;;;;9.00;99.90;;;;;;5090760;28;19909;-70
2021/05/16 03:36:28;;;;;;;;;;;9.00;99.90;;;;;;5089349;28;20386;-70
2021/05/16 03:38:53;;;;;;;;;;;8.90;99.90;;;;;;5090703;28;20006;-70
2021/05/16 03:41:19;;;;;;;;;;;8.90;99.90;;;;;;5091159;28;19997;-70
2021/05/16 03:43:45;;;;;;;;;;;8.90;99.90;;;;;;5091070;28;20167;-70
2021/05/16 03:46:10;;;;;;;;;;;8.90;99.90;;;;;;5090137;28;19915;-70
2021/05/16 03:48:36;;;;;;;;;;;8.90;99.90;;;;;;5090469;28;19953;-71
2021/05/16 03:51:02;;;;;;;;;;;8.90;99.90;;;;;;5086336;28;19912;-71
2021/05/16 03:53:27;;;;;;;;;;;8.90;99.90;;;;;;5090541;28;20003;-71
2021/05/16 03:55:53;;;;;;;;;;;8.90;99.90;;;;;;5089946;28;19908;-70
2021/05/16 03:58:18;;;;;;;;;;;8.90;99.90;;;;;;5090844;28;20005;-70
2021/05/16 04:00:44;;;;;;;;;;;8.90;99.90;;;;;;5090835;28;19918;-71
2021/05/16 04:03:09;;;;;;;;;;;8.90;99.90;;;;;;5090710;28;19909;-71
2021/05/16 04:05:35;;;;;;;;;;;8.90;99.90;;;;;;5090088;28;20188;-70
2021/05/16 04:08:00;;;;;;;;;;;8.90;99.90;;;;;;5090163;28;20277;-71
2021/05/16 04:10:26;;;;;;;;;;;8.90;99.90;;;;;;5090881;28;19942;-71
2021/05/16 04:12:51;;;;;;;;;;;8.90;99.90;;;;;;5090690;28;20369;-70
2021/05/16 04:15:17;;;;;;;;;;;8.90;99.90;;;;;;5090525;28;19915;-70
2021/05/16 04:17:42;;;;;;;;;;;8.80;99.90;;;;;;5089591;28;19915;-71
2021/05/16 04:20:08;;;;;;;;;;;8.90;99.90;;;;;;5086274;28;20281;-70
2021/05/16 04:22:33;;;;;;;;;;;8.80;99.90;;;;;;5088954;28;20296;-70
2021/05/16 04:24:59;;;;;;;;;;;8.90;99.90;;;;;;5090514;28;19908;-70
2021/05/16 04:27:25;;;;;;;;;;;8.90;99.90;;;;;;5089592;28;19930;-70
2021/05/16 04:29:50;;;;;;;;;;;8.90;99.90;;;;;;5090589;28;19908;-71
2021/05/16 04:32:15;;;;;;;;;;;8.90;99.90;;;;;;5090724;28;20155;-70
2021/05/16 04:34:41;;;;;;;;;;;8.90;99.90;;;;;;5090349;28;19954;-70
2021/05/16 04:37:06;;;;;;;;;;;8.80;99.90;;;;;;5089093;28;19919;-70
2021/05/16 04:39:32;;;;;;;;;;;8.80;99.90;;;;;;5090299;28;19920;-70
2021/05/16 04:41:57;;;;;;;;;;;8.80;99.90;;;;;;5090558;28;19915;-70
2021/05/16 04:44:23;;;;;;;;;;;8.80;99.90;;;;;;5090362;28;20451;-70
2021/05/16 04:46:49;;;;;;;;;;;8.80;99.90;;;;;;5089858;28;19912;-70
2021/05/16 04:49:15;;;;;;;;;;;8.90;99.90;;;;;;5089814;28;19909;-72
2021/05/16 04:51:41;;;;;;;;;;;8.90;99.90;;;;;;5094001;28;19919;-71
2021/05/16 04:54:06;;;;;;;;;;;8.90;99.90;;;;;;5094067;28;20458;-70
2021/05/16 04:56:32;;;;;;;;;;;9.00;99.90;;;;;;5093124;28;20319;-70
2021/05/16 04:58:57;;;;;;;;;;;9.00;99.90;;;;;;5093759;28;19912;-70
2021/05/16 05:01:23;;;;;;;;;;;9.00;99.90;;;;;;5093902;28;19912;-71
2021/05/16 05:03:49;;;;;;;;;;;9.00;99.90;;;;;;5093621;28;20012;-70
2021/05/16 05:06:14;;;;;;;;;;;9.10;99.90;;;;;;5092828;28;19912;-70
2021/05/16 05:08:40;;;;;;;;;;;9.10;99.90;;;;;;5093589;28;19951;-70
2021/05/16 05:11:05;;;;;;;;;;;9.20;99.90;;;;;;5093738;28;19912;-71
2021/05/16 05:13:31;;;;;;;;;;;9.20;99.90;;;;;;5093919;28;20369;-70
2021/05/16 05:15:56;;;;;;;;;;;9.20;99.90;;;;;;5092656;28;20316;-70
2021/05/16 05:18:22;;;;;;;;;;;9.30;99.90;;;;;;5093476;28;19915;-71
2021/05/16 05:20:49;;;;;;;;;;;9.30;99.90;;;;;;5089224;28;20352;-71
2021/05/16 05:23:14;;;;;;;;;;;9.30;99.90;;;;;;5093298;28;19914;-70
2021/05/16 05:25:40;;;;;;;;;;;9.40;99.90;;;;;;5092378;28;19912;-70
2021/05/16 05:28:05;;;;;;;;;;;9.40;99.90;;;;;;5093336;28;20292;-70
2021/05/16 05:30:31;;;;;;;;;;;9.50;99.90;;;;;;5093576;28;19961;-70
2021/05/16 05:32:56;;;;;;;;;;;9.50;99.90;;;;;;5093319;28;19908;-70
2021/05/16 05:35:22;;;;;;;;;;;9.60;99.90;;;;;;5093661;28;20031;-71
2021/05/16 05:37:47;;;;;;;;;;;9.70;99.90;;;;;;5091880;28;20003;-71
2021/05/16 05:40:13;;;;;;;;;;;9.70;99.90;;;;;;5093199;28;19927;-71
2021/05/16 05:42:39;;;;;;;;;;;9.70;99.90;;;;;;5093319;28;19908;-71
2021/05/16 05:45:05;;;;;;;;;;;9.70;99.90;;;;;;5093178;28;19908;-71
2021/05/16 05:47:31;;;;;;;;;;;9.60;99.90;;;;;;5092016;28;19908;-70
2021/05/16 05:49:56;;;;;;;;;;;9.60;99.90;;;;;;5088694;28;20447;-71
2021/05/16 05:52:22;;;;;;;;;;;9.70;99.90;;;;;;5092683;28;19908;-70
2021/05/16 05:54:47;;;;;;;;;;;9.80;99.90;;;;;;5091741;28;19908;-71
2021/05/16 05:57:13;;;;;;;;;;;9.90;99.90;;;;;;5092021;28;19908;-71
2021/05/16 05:59:39;;;;;;;;;;;10.00;99.90;;;;;;5092500;28;19934;-71
2021/05/16 06:02:04;;;;;;;;;;;10.20;99.90;;;;;;5092934;28;19908;-72
2021/05/16 06:04:30;;;;;;;;;;;10.40;99.90;;;;;;5092687;28;19957;-70
2021/05/16 06:06:56;;;;;;;;;;;10.60;99.90;;;;;;5091545;28;19912;-71
2021/05/16 06:09:21;;;;;;;;;;;10.70;99.90;;;;;;5092892;28;20384;-71
2021/05/16 06:11:47;;;;;;;;;;;10.70;99.90;;;;;;5092756;28;20369;-71
2021/05/16 06:14:12;;;;;;;;;;;10.90;99.90;;;;;;5092457;28;20361;-71
2021/05/16 06:16:38;;;;;;;;;;;11.50;99.90;;;;;;5091585;28;19908;-71
2021/05/16 06:19:03;;;;;;;;;;;12.30;99.90;;;;;;5089866;28;19916;-71
2021/05/16 06:21:29;;;;;;;;;;;12.70;99.90;;;;;;5090793;28;19994;-71
2021/05/16 06:24:09;;;;;;;;;;;12.70;99.90;;;;;;5092153;28;19928;-71
2021/05/16 06:26:36;;;;;;;;;;;12.80;99.90;;;;;;5091531;28;19912;-71
2021/05/16 06:29:02;;;;;;;;;;;12.70;99.90;;;;;;5092310;28;19930;-71
2021/05/16 06:31:28;;;;;;;;;;;12.50;99.90;;;;;;5091954;28;19992;-71
2021/05/16 06:33:54;;;;;;;;;;;12.50;99.90;;;;;;5092299;28;20337;-71
2021/05/16 06:36:19;;;;;;;;;;;12.40;99.90;;;;;;5091019;28;19912;-72
2021/05/16 06:38:45;;;;;;;;;;;12.40;99.90;;;;;;5091752;28;19947;-71
2021/05/16 06:41:10;;;;;;;;;;;12.50;99.90;;;;;;5092166;28;20280;-71
2021/05/16 06:43:36;;;;;;;;;;;12.50;99.90;;;;;;5092157;28;19912;-71
2021/05/16 06:46:01;;;;;;;;;;;12.70;99.90;;;;;;5090045;28;19954;-72
2021/05/16 06:48:27;;;;;;;;;;;13.10;99.90;;;;;;5091725;28;20377;-71
2021/05/16 06:50:53;;;;;;;;;;;13.20;99.90;;;;;;5087785;28;19912;-71
2021/05/16 06:53:18;;;;;;;;;;;13.50;99.90;;;;;;5091451;28;19908;-71
2021/05/16 06:55:44;;;;;;;;;;;14.00;99.90;;;;;;5090927;28;19915;-71
2021/05/16 06:58:09;;;;;;;;;;;14.60;99.90;;;;;;5090523;28;19915;-71
2021/05/16 07:00:35;;;;;;;;;;;14.90;99.90;;;;;;5090088;28;19938;-71
2021/05/16 07:03:00;;;;;;;;;;;14.80;99.90;;;;;;5091638;28;19999;-71
2021/05/16 07:05:26;;;;;;;;;;;15.00;99.90;;;;;;5091904;28;19912;-71
2021/05/16 07:07:51;;;;;;;;;;;15.20;99.90;;;;;;5091358;28;19919;-71
2021/05/16 07:10:17;;;;;;;;;;;15.20;99.90;;;;;;5091381;28;19908;-71
2021/05/16 07:12:42;;;;;;;;;;;15.50;99.90;;;;;;5090237;28;19967;-71
2021/05/16 07:15:12;;;;;;;;;;;15.80;99.90;;;;;;5091320;28;19918;-71
2021/05/16 07:17:37;;;;;;;;;;;15.70;99.90;;;;;;5090478;28;19966;-71
2021/05/16 07:20:03;;;;;;;;;;;15.40;99.90;;;;;;5087365;28;19963;-71
2021/05/16 07:22:29;;;;;;;;;;;15.10;99.90;;;;;;5090801;28;20254;-71
2021/05/16 07:24:54;;;;;;;;;;;15.00;99.90;;;;;;5091279;28;19962;-72
2021/05/16 07:27:20;;;;;;;;;;;14.90;99.90;;;;;;5090415;28;19915;-72
2021/05/16 07:29:47;;;;;;;;;;;14.90;99.90;;;;;;5091658;28;20277;-72
2021/05/16 07:32:13;;;;;;;;;;;15.20;99.90;;;;;;5091265;28;20365;-72
2021/05/16 07:34:39;;;;;;;;;;;15.60;99.90;;;;;;5091186;28;19963;-72
2021/05/16 07:37:04;;;;;;;;;;;16.10;99.90;;;;;;5089863;28;19912;-71
2021/05/16 07:39:30;;;;;;;;;;;16.40;99.90;;;;;;5091237;28;19964;-71
2021/05/16 07:41:56;;;;;;;;;;;16.20;99.90;;;;;;5090546;28;20474;-71
2021/05/16 07:44:22;;;;;;;;;;;15.80;99.90;;;;;;5090988;28;20472;-71
2021/05/16 07:46:47;;;;;;;;;;;15.80;99.90;;;;;;5089953;28;19915;-71
2021/05/16 07:49:13;;;;;;;;;;;16.10;99.90;;;;;;5087287;28;19931;-72
2021/05/16 07:51:38;;;;;;;;;;;16.40;99.90;;;;;;5090912;28;20277;-72
2021/05/16 07:54:04;;;;;;;;;;;16.50;99.90;;;;;;5091051;28;19910;-72
2021/05/16 07:56:29;;;;;;;;;;;16.10;99.90;;;;;;5090255;28;19908;-72
2021/05/16 07:58:55;;;;;;;;;;;15.80;99.90;;;;;;5090835;28;19916;-72
2021/05/16 08:01:20;;;;;;;;;;;15.30;99.90;;;;;;5091121;28;20292;-71
2021/05/16 08:03:46;;;;;;;;;;;15.40;99.90;;;;;;5091539;28;19930;-71
2021/05/16 08:06:12;;;;;;;;;;;16.00;99.90;;;;;;5089120;28;20336;-72
2021/05/16 08:08:38;;;;;;;;;;;16.60;99.90;;;;;;5090930;28;20003;-72
2021/05/16 08:11:03;;;;;;;;;;;17.10;99.90;;;;;;5091136;28;19948;-72
2021/05/16 08:13:29;;;;;;;;;;;17.50;99.90;;;;;;5090934;28;19916;-71
2021/05/16 08:15:54;;;;;;;;;;;17.40;99.90;;;;;;5090461;28;19923;-72
2021/05/16 08:18:20;;;;;;;;;;;17.40;99.90;;;;;;5091027;28;19908;-72
2021/05/16 08:20:45;;;;;;;;;;;17.60;99.90;;;;;;5087177;28;20452;-72
2021/05/16 08:23:11;;;;;;;;;;;18.00;99.80;;;;;;5094553;28;20384;-72
2021/05/16 08:25:38;;;;;;;;;;;18.30;99.40;;;;;;5094438;28;19915;-72
2021/05/16 08:28:04;;;;;;;;;;;18.40;98.30;;;;;;5094784;28;19995;-72
2021/05/16 08:30:30;;;;;;;;;;;18.60;98.20;;;;;;5094332;28;20490;-72
2021/05/16 08:32:55;;;;;;;;;;;18.90;98.00;;;;;;5094951;28;19912;-72
2021/05/16 08:35:21;;;;;;;;;;;19.20;98.00;;;;;;5084666;28;20384;-72
2021/05/16 08:37:46;;;;;;;;;;;19.50;97.60;;;;;;5071987;28;19923;-72
2021/05/16 08:40:12;;;;;;;;;;;19.70;96.50;;;;;;5074036;28;20366;-73
2021/05/16 08:42:38;;;;;;;;;;;19.90;96.70;;;;;;5074283;28;19947;-72
2021/05/16 08:45:08;;;;;;;;;;;19.60;95.00;;;;;;5074190;28;20763;-72
2021/05/16 08:47:34;;;;;;;;;;;19.50;95.00;;;;;;5075991;28;20319;-72
2021/05/16 08:49:59;;;;;;;;;;;19.40;95.00;;;;;;5089953;28;19908;-72
2021/05/16 08:52:25;;;;;;;;;;;19.10;95.10;;;;;;5094351;28;19966;-72
2021/05/16 08:54:53;;;;;;;;;;;18.90;95.40;;;;;;5094461;28;19908;-72
2021/05/16 08:57:19;;;;;;;;;;;18.60;95.80;;;;;;5089663;28;19908;-72
2021/05/16 09:00:03;;;;;;;;;;;18.10;95.10;;;;;;5093311;28;19923;-72
2021/05/16 09:02:29;;;;;;;;;;;17.90;96.00;;;;;;5093496;28;20218;-73
2021/05/16 09:04:54;;;;;;;;;;;18.10;95.80;;;;;;5093788;28;20053;-72
2021/05/16 09:07:27;;;;;;;;;;;18.30;95.90;;;;;;5092510;28;19909;-72
2021/05/16 09:09:53;;;;;;;;;;;18.70;95.20;;;;;;5094404;28;20482;-72
2021/05/16 09:12:18;;;;;;;;;;;18.70;95.00;;;;;;5094002;28;19908;-71
2021/05/16 09:14:56;;;;;;;;;;;18.50;93.70;;;;;;5094230;28;19908;-72
2021/05/16 09:17:23;;;;;;;;;;;18.20;94.70;;;;;;5093284;28;20006;-71
2021/05/16 09:19:50;;;;;;;;;;;17.70;94.90;;;;;;5089648;28;19912;-71
2021/05/16 09:22:29;;;;;;;;;;;17.60;95.20;;;;;;5093599;28;19947;-72
2021/05/16 09:25:13;;;;;;;;;;;17.80;96.00;;;;;;5093573;28;19908;-72
2021/05/16 09:27:39;;;;;;;;;;;17.70;95.40;;;;;;5092522;28;19908;-72
2021/05/16 09:30:17;;;;;;;;;;;17.80;94.60;;;;;;5093832;28;19918;-72
2021/05/16 09:32:46;;;;;;;;;;;18.10;94.30;;;;;;5092894;28;19958;-71
2021/05/16 09:35:11;;;;;;;;;;;18.50;93.30;;;;;;5093608;28;19915;-71
2021/05/16 09:37:53;;;;;;;;;;;18.70;91.70;;;;;;5092061;28;20284;-71
2021/05/16 09:40:22;;;;;;;;;;;18.60;90.90;;;;;;5093489;28;19915;-71
2021/05/16 09:43:04;;;;;;;;;;;18.20;92.80;;;;;;5093515;28;19993;-72
2021/05/16 09:45:40;;;;;;;;;;;18.40;93.60;;;;;;5093395;28;20015;-72
2021/05/16 09:48:36;;;;;;;;;;;18.90;94.50;;;;;;5093393;28;19908;-71
2021/05/16 09:51:20;;;;;;;;;;;19.50;93.80;;;;;;5084404;28;19908;-72
2021/05/16 09:53:52;;;;;;;;;;;20.10;93.90;;;;;;5092869;28;19912;-72
2021/05/16 09:56:24;;;;;;;;;;;20.60;91.50;;;;;;5092472;28;19912;-72
2021/05/16 09:58:51;;;;;;;;;;;20.50;91.60;;;;;;5093026;28;19908;-72
2021/05/16 10:01:17;;;;;;;;;;;20.90;92.20;;;;;;5093059;28;19912;-72
2021/05/16 10:03:43;;;;;;;;;;;21.30;90.50;;;;;;5093099;28;19951;-71
2021/05/16 10:06:08;;;;;;;;;;;21.20;88.70;;;;;;5091834;28;20309;-71
2021/05/16 10:08:35;;;;;;;;;;;21.30;88.60;;;;;;5092733;28;19908;-71
2021/05/16 10:11:01;;;;;;;;;;;21.10;88.30;;;;;;5092521;28;19909;-71
2021/05/16 10:13:28;;;;;;;;;;;20.90;86.90;;;;;;5092573;28;19915;-71
2021/05/16 10:15:54;;;;;;;;;;;20.80;91.20;;;;;;5091907;28;19994;-71
2021/05/16 10:18:20;;;;;;;;;;;20.80;88.90;;;;;;5092763;28;19930;-71
2021/05/16 10:20:46;;;;;;;;;;;20.70;85.50;;;;;;5088686;28;20489;-71
2021/05/16 10:23:12;;;;;;;;;;;20.50;87.40;;;;;;5092410;28;19995;-71
2021/05/16 10:25:38;;;;;;;;;;;20.90;90.00;;;;;;5092194;28;19939;-71
2021/05/16 10:28:04;;;;;;;;;;;21.60;87.10;;;;;;5092214;28;19909;-71
2021/05/16 10:30:29;;;;;;;;;;;22.10;87.30;;;;;;5092567;28;20329;-72
2021/05/16 10:32:55;;;;;;;;;;;22.40;85.50;;;;;;5092499;28;19934;-71
2021/05/16 10:35:21;;;;;;;;;;;22.00;79.60;;;;;;5092324;28;19918;-71
2021/05/16 10:37:48;;;;;;;;;;;21.30;81.30;;;;;;5091086;28;19939;-71
2021/05/16 10:40:20;;;;;;;;;;;20.60;82.80;;;;;;5092302;28;19912;-71
2021/05/16 10:42:46;;;;;;;;;;;19.80;85.90;;;;;;5092307;28;19951;-71
2021/05/16 10:45:14;;;;;;;;;;;19.30;86.10;;;;;;5090012;28;20376;-71
2021/05/16 10:47:43;;;;;;;;;;;18.70;86.30;;;;;;5091099;28;19916;-71
2021/05/16 10:50:09;;;;;;;;;;;18.20;91.40;;;;;;5088028;28;20269;-71
2021/05/16 10:52:34;;;;;;;;;;;17.80;94.80;;;;;;5091842;28;19914;-71
2021/05/16 10:55:00;;;;;;;;;;;17.40;94.50;;;;;;5091960;28;20285;-71
2021/05/16 10:57:36;;;;;;;;;;;17.10;97.20;;;;;;5091102;28;19926;-71
2021/05/16 11:00:37;;;;;;;;;;;17.10;97.00;;;;;;5092004;28;19913;-71
2021/05/16 11:03:07;;;;;;;;;;;17.30;96.50;;;;;;5049339;28;20484;-71
2021/05/16 11:05:51;;;;;;;;;;;17.40;97.80;;;;;;5084068;28;19908;-71
2021/05/16 11:08:20;;;;;;;;;;;17.40;97.20;;;;;;5091551;28;19999;-71
2021/05/16 11:10:47;;;;;;;;;;;17.20;98.00;;;;;;5091638;28;19916;-71
2021/05/16 11:13:17;;;;;;;;;;;17.10;99.60;;;;;;5091696;28;19908;-71
2021/05/16 11:15:46;;;;;;;;;;;17.40;99.90;;;;;;5087468;28;20312;-71
2021/05/16 11:18:16;;;;;;;;;;;18.10;99.80;;;;;;5087534;28;20357;-71
2021/05/16 11:20:42;;;;;;;;;;;18.70;96.50;;;;;;5091946;28;19912;-71
2021/05/16 11:23:07;;;;;;;;;;;19.40;95.40;;;;;;5091212;28;19990;-71
2021/05/16 11:25:33;;;;;;;;;;;19.80;94.50;;;;;;5091168;28;19961;-71
2021/05/16 11:27:58;;;;;;;;;;;20.10;94.20;;;;;;5090944;28;19915;-71
2021/05/16 11:30:27;;;;;;;;;;;20.50;93.20;;;;;;5091493;28;19998;-72
2021/05/16 11:32:54;;;;;;;;;;;20.70;93.00;;;;;;5091515;28;19908;-71
2021/05/16 11:35:21;;;;;;;;;;;21.10;92.00;;;;;;5091357;28;19908;-71
2021/05/16 11:37:51;;;;;;;;;;;21.30;91.50;;;;;;5089904;28;20373;-71
2021/05/16 11:40:25;;;;;;;;;;;21.40;91.60;;;;;;5091320;28;19913;-71
2021/05/16 11:43:01;;;;;;;;;;;21.20;90.70;;;;;;5091238;28;19914;-71
2021/05/16 11:45:27;;;;;;;;;;;20.90;91.00;;;;;;5091339;28;19912;-72
2021/05/16 11:47:53;;;;;;;;;;;20.80;90.90;;;;;;5083539;28;19919;-72
2021/05/16 11:50:18;;;;;;;;;;;21.10;90.50;;;;;;5091043;28;19912;-71
2021/05/16 11:52:44;;;;;;;;;;;21.20;88.20;;;;;;5091257;28;19916;-71
2021/05/16 11:55:11;;;;;;;;;;;20.90;84.30;;;;;;5090833;28;20313;-71
2021/05/16 11:57:44;;;;;;;;;;;20.50;86.00;;;;;;5093704;28;20313;-71
2021/05/16 12:00:10;;;;;;;;;;;20.00;85.50;;;;;;5095409;28;19964;-71
2021/05/16 12:02:36;;;;;;;;;;;19.50;86.40;;;;;;5095298;28;20002;-71
2021/05/16 12:05:02;;;;;;;;;;;19.50;87.80;;;;;;5095202;28;20064;-71
2021/05/16 12:07:28;;;;;;;;;;;19.70;89.40;;;;;;5094452;28;19908;-71
2021/05/16 12:09:54;;;;;;;;;;;20.10;86.90;;;;;;5094943;28;19914;-71
2021/05/16 12:12:20;;;;;;;;;;;20.30;85.30;;;;;;5095268;28;20299;-71
2021/05/16 12:14:46;;;;;;;;;;;20.10;84.70;;;;;;5094980;28;19918;-71
2021/05/16 12:17:15;;;;;;;;;;;20.10;85.70;;;;;;5087066;28;19909;-71
2021/05/16 12:19:41;;;;;;;;;;;20.20;84.80;;;;;;5094745;28;19949;-71
2021/05/16 12:22:07;;;;;;;;;;;20.00;85.80;;;;;;5095333;28;19912;-71
2021/05/16 12:24:36;;;;;;;;;;;19.70;83.60;;;;;;5094636;28;20392;-71
2021/05/16 12:27:04;;;;;;;;;;;19.50;87.40;;;;;;5093884;28;19916;-71
2021/05/16 12:29:29;;;;;;;;;;;19.20;86.60;;;;;;5094821;28;20273;-71
2021/05/16 12:31:55;;;;;;;;;;;18.90;85.00;;;;;;5094329;28;19914;-71
2021/05/16 12:34:25;;;;;;;;;;;18.50;84.50;;;;;;5094755;28;19909;-71
2021/05/16 12:36:53;;;;;;;;;;;18.20;85.70;;;;;;5093603;28;19954;-71
2021/05/16 12:39:58;;;;;;;;;;;17.90;86.90;;;;;;5094327;28;19919;-71
2021/05/16 12:42:27;;;;;;;;;;;17.70;85.40;;;;;;5051846;28;19909;-71
2021/05/16 12:44:54;;;;;;;;;;;17.50;88.00;;;;;;5051946;28;20365;-71
2021/05/16 12:47:26;;;;;;;;;;;17.30;88.50;;;;;;5071871;28;19961;-71
2021/05/16 12:50:00;;;;;;;;;;;17.30;85.30;;;;;;5094484;28;20591;-71
2021/05/16 12:52:26;;;;;;;;;;;17.30;89.40;;;;;;5094506;28;19915;-71
2021/05/16 12:54:52;;;;;;;;;;;17.40;90.10;;;;;;5093860;28;20281;-71
2021/05/16 12:57:25;;;;;;;;;;;17.50;90.20;;;;;;5093290;28;19915;-71
2021/05/16 12:59:50;;;;;;;;;;;17.50;89.70;;;;;;5094299;28;19912;-71
2021/05/16 13:02:16;;;;;;;;;;;17.50;88.70;;;;;;5094428;28;19919;-71
2021/05/16 13:04:52;;;;;;;;;;;17.60;90.10;;;;;;5094586;28;19909;-71
2021/05/16 13:07:32;;;;;;;;;;;17.60;87.00;;;;;;5092372;28;19950;-71
2021/05/16 13:09:58;;;;;;;;;;;17.60;86.30;;;;;;5093884;28;19919;-71
2021/05/16 13:12:24;;;;;;;;;;;17.60;87.10;;;;;;5094180;28;20452;-71
2021/05/16 13:14:56;;;;;;;;;;;17.50;89.80;;;;;;5093914;28;19915;-71
2021/05/16 13:17:28;;;;;;;;;;;17.50;90.40;;;;;;5086061;28;19912;-71
2021/05/16 13:19:54;;;;;;;;;;;17.50;89.90;;;;;;5093440;28;20487;-71
2021/05/16 13:22:35;;;;;;;;;;;17.60;90.80;;;;;;5093867;28;19947;-71
2021/05/16 13:25:01;;;;;;;;;;;17.70;91.50;;;;;;5093434;28;19908;-71
2021/05/16 13:27:26;;;;;;;;;;;17.80;91.10;;;;;;5093108;28;19965;-71
2021/05/16 13:29:56;;;;;;;;;;;17.80;91.30;;;;;;5093616;28;20004;-71
2021/05/16 13:32:21;;;;;;;;;;;17.70;91.00;;;;;;5093584;28;19993;-71
2021/05/16 13:34:49;;;;;;;;;;;17.50;91.10;;;;;;5093532;28;19932;-71
2021/05/16 13:37:14;;;;;;;;;;;17.40;92.20;;;;;;5092580;28;19919;-71
2021/05/16 13:39:40;;;;;;;;;;;17.30;92.50;;;;;;5093132;28;19913;-71
2021/05/16 13:42:05;;;;;;;;;;;17.20;91.20;;;;;;5093377;28;19912;-71
2021/05/16 13:44:31;;;;;;;;;;;17.10;91.70;;;;;;5093456;28;20353;-71
2021/05/16 13:46:57;;;;;;;;;;;16.90;92.10;;;;;;5085343;28;19964;-71
2021/05/16 13:49:22;;;;;;;;;;;16.80;91.30;;;;;;5092687;28;20290;-71
2021/05/16 13:51:48;;;;;;;;;;;16.70;91.20;;;;;;5093095;28;19915;-71
2021/05/16 13:54:14;;;;;;;;;;;16.60;91.80;;;;;;5092936;28;19947;-71
2021/05/16 13:56:41;;;;;;;;;;;16.60;92.00;;;;;;5091972;28;20261;-71
2021/05/16 13:59:08;;;;;;;;;;;16.60;91.70;;;;;;5093113;28;19923;-71
2021/05/16 14:01:38;;;;;;;;;;;16.60;92.50;;;;;;5093053;28;19914;-70
2021/05/16 14:04:04;;;;;;;;;;;16.60;92.40;;;;;;5092975;28;20003;-71
2021/05/16 14:06:30;;;;;;;;;;;16.60;91.80;;;;;;5091980;28;19931;-71
2021/05/16 14:08:55;;;;;;;;;;;16.40;92.60;;;;;;5092836;28;20377;-71
2021/05/16 14:11:21;;;;;;;;;;;16.40;92.20;;;;;;5091791;28;19915;-71
2021/05/16 14:13:46;;;;;;;;;;;16.20;93.00;;;;;;5092860;28;19908;-71
2021/05/16 14:16:12;;;;;;;;;;;15.90;93.90;;;;;;5091550;28;19908;-71
2021/05/16 14:18:38;;;;;;;;;;;15.60;94.50;;;;;;5092463;28;19908;-71
2021/05/16 14:21:03;;;;;;;;;;;15.40;95.70;;;;;;5092713;28;19912;-71